Time;durP1;ratioP1;P1;durP2;ratioP2;P2;SDS_P1;SDS_P2;PMS_P1;PMS_P2;Temp;Humidity;BMP_temperature;BMP_pressure;BME280_temperature;BME280_humidity;BME280_pressure;Samples;Min_cycle;Max_cycle;Signal;HPM_P1;HPM_P2
2023/04/04 00:00:27;;;;;;;1.05;0.98;;;;;;;;;;5073890;28;20728;-87
2023/04/04 00:02:54;;;;;;;1.70;1.17;;;;;;;;;;5073073;28;20287;-87
2023/04/04 00:05:22;;;;;;;1.23;1.13;;;;;;;;;;5072793;28;20216;-86
2023/04/04 00:07:49;;;;;;;1.33;1.13;;;;;;;;;;5074535;28;20292;-87
2023/04/04 00:10:23;;;;;;;1.13;1.00;;;;;;;;;;5077903;28;20299;-87
2023/04/04 00:12:52;;;;;;;1.77;0.90;;;;;;;;;;5078230;28;20207;-86
2023/04/04 00:15:19;;;;;;;2.00;1.80;;;;;;;;;;5077238;28;20311;-87
2023/04/04 00:17:47;;;;;;;1.42;1.10;;;;;;;;;;5077271;28;20200;-87
2023/04/04 00:20:15;;;;;;;1.52;1.38;;;;;;;;;;5077034;28;20228;-88
2023/04/04 00:22:42;;;;;;;2.85;1.30;;;;;;;;;;5077491;28;20279;-87
2023/04/04 00:25:10;;;;;;;1.30;1.20;;;;;;;;;;5078169;28;20307;-87
2023/04/04 00:27:37;;;;;;;6.28;1.38;;;;;;;;;;5077409;28;20216;-87
2023/04/04 00:30:08;;;;;;;1.23;1.13;;;;;;;;;;5077425;28;20235;-86
2023/04/04 00:32:36;;;;;;;1.33;1.23;;;;;;;;;;5076767;28;20204;-87
2023/04/04 00:35:03;;;;;;;1.27;1.17;;;;;;;;;;5076621;28;20256;-86
2023/04/04 00:37:31;;;;;;;1.05;1.05;;;;;;;;;;5076216;28;20207;-87
2023/04/04 00:39:58;;;;;;;1.58;1.20;;;;;;;;;;5076865;28;20291;-86
2023/04/04 00:42:26;;;;;;;0.90;0.90;;;;;;;;;;5076826;28;20307;-86
2023/04/04 00:44:54;;;;;;;1.25;1.15;;;;;;;;;;5076585;28;20237;-87
2023/04/04 00:47:26;;;;;;;1.75;1.33;;;;;;;;;;5076830;28;20292;-87
2023/04/04 00:49:54;;;;;;;1.52;1.17;;;;;;;;;;5077078;28;20189;-86
2023/04/04 00:52:22;;;;;;;1.80;1.25;;;;;;;;;;5077052;28;20563;-86
2023/04/04 00:54:50;;;;;;;1.10;1.00;;;;;;;;;;5076545;28;20264;-86
2023/04/04 00:57:18;;;;;;;2.53;1.63;;;;;;;;;;5077159;28;20632;-87
2023/04/04 00:59:45;;;;;;;1.50;1.40;;;;;;;;;;5076651;28;20658;-88
2023/04/04 01:02:13;;;;;;;1.77;1.10;;;;;;;;;;5076479;28;20669;-87
2023/04/04 01:04:42;;;;;;;1.55;1.45;;;;;;;;;;5076424;28;20303;-86
2023/04/04 01:07:10;;;;;;;1.67;1.27;;;;;;;;;;5075874;28;20216;-87
2023/04/04 01:09:37;;;;;;;2.45;1.50;;;;;;;;;;5076240;28;20288;-86
2023/04/04 01:12:05;;;;;;;1.50;1.40;;;;;;;;;;5076844;28;20300;-86
2023/04/04 01:14:32;;;;;;;1.73;1.10;;;;;;;;;;5076374;28;20229;-87
2023/04/04 01:17:01;;;;;;;1.52;1.40;;;;;;;;;;5077063;28;20201;-86
2023/04/04 01:19:33;;;;;;;1.30;1.02;;;;;;;;;;5075907;28;20657;-86
2023/04/04 01:22:03;;;;;;;3.03;1.92;;;;;;;;;;5076837;28;20361;-86
2023/04/04 01:24:34;;;;;;;1.77;1.30;;;;;;;;;;5076494;28;20315;-87
2023/04/04 01:27:02;;;;;;;1.08;1.08;;;;;;;;;;5076623;28;20195;-87
2023/04/04 01:29:30;;;;;;;2.15;1.50;;;;;;;;;;5076378;28;20245;-86
2023/04/04 01:32:05;;;;;;;1.40;1.23;;;;;;;;;;5076010;28;20201;-86
2023/04/04 01:34:41;;;;;;;3.53;2.08;;;;;;;;;;5075567;28;20220;-86
2023/04/04 01:37:15;;;;;;;2.00;1.30;;;;;;;;;;5075500;28;20191;-86
2023/04/04 01:39:46;;;;;;;1.85;1.30;;;;;;;;;;5076094;28;20195;-86
2023/04/04 01:42:18;;;;;;;3.15;1.38;;;;;;;;;;5076007;28;20193;-86
2023/04/04 01:44:46;;;;;;;2.15;1.45;;;;;;;;;;5075454;28;20235;-86
2023/04/04 01:47:13;;;;;;;1.20;1.10;;;;;;;;;;5076229;28;20287;-86
2023/04/04 01:49:41;;;;;;;1.50;1.25;;;;;;;;;;5075401;28;20724;-86
2023/04/04 01:52:08;;;;;;;1.27;1.13;;;;;;;;;;5075567;28;20197;-86
2023/04/04 01:54:36;;;;;;;1.17;1.08;;;;;;;;;;5075568;28;20304;-86
2023/04/04 01:57:03;;;;;;;3.15;1.92;;;;;;;;;;5075300;28;20311;-87
2023/04/04 01:59:32;;;;;;;1.52;1.20;;;;;;;;;;5075020;28;20291;-86
2023/04/04 02:02:00;;;;;;;1.20;1.10;;;;;;;;;;5075491;28;20296;-86
2023/04/04 02:04:28;;;;;;;1.00;1.00;;;;;;;;;;5075239;28;20225;-86
2023/04/04 02:06:56;;;;;;;1.40;1.30;;;;;;;;;;5074825;28;20201;-86
2023/04/04 02:09:24;;;;;;;0.90;0.90;;;;;;;;;;5080487;28;20250;-86
2023/04/04 02:11:51;;;;;;;1.17;1.10;;;;;;;;;;5081398;28;20288;-87
2023/04/04 02:14:18;;;;;;;3.03;1.40;;;;;;;;;;5075253;28;20332;-87
2023/04/04 02:16:47;;;;;;;1.17;1.10;;;;;;;;;;5075049;28;20220;-86
2023/04/04 02:19:15;;;;;;;1.00;1.00;;;;;;;;;;5075211;28;20296;-86
2023/04/04 02:21:42;;;;;;;1.83;1.70;;;;;;;;;;5075535;28;20232;-86
2023/04/04 02:24:10;;;;;;;1.08;0.98;;;;;;;;;;5075057;28;20324;-86
2023/04/04 02:26:38;;;;;;;1.33;1.10;;;;;;;;;;5075473;28;20692;-87
2023/04/04 02:29:06;;;;;;;2.05;1.88;;;;;;;;;;5075136;28;20297;-87
2023/04/04 02:31:33;;;;;;;1.25;1.15;;;;;;;;;;5074149;28;20196;-87
2023/04/04 02:34:02;;;;;;;1.38;1.10;;;;;;;;;;5074915;28;20217;-86
2023/04/04 02:36:30;;;;;;;1.60;1.20;;;;;;;;;;5074230;28;20259;-86
2023/04/04 02:38:57;;;;;;;1.13;1.08;;;;;;;;;;5073987;28;20205;-87
2023/04/04 02:41:25;;;;;;;1.55;1.23;;;;;;;;;;5075286;28;20284;-86
2023/04/04 02:43:52;;;;;;;1.23;1.13;;;;;;;;;;5081921;22;20639;-83
2023/04/04 02:46:20;;;;;;;1.92;1.15;;;;;;;;;;5080009;28;20217;-86
2023/04/04 02:48:47;;;;;;;1.65;1.23;;;;;;;;;;5079992;28;20292;-87
2023/04/04 02:51:16;;;;;;;1.40;1.30;;;;;;;;;;5080290;28;20287;-85
2023/04/04 02:53:44;;;;;;;2.22;1.20;;;;;;;;;;5080062;28;20232;-85
2023/04/04 02:56:11;;;;;;;1.50;1.40;;;;;;;;;;5079595;28;20256;-86
2023/04/04 02:58:39;;;;;;;1.02;0.93;;;;;;;;;;5079816;28;20580;-86
2023/04/04 03:01:07;;;;;;;1.55;1.20;;;;;;;;;;5078883;28;20264;-85
2023/04/04 03:03:34;;;;;;;2.08;1.52;;;;;;;;;;5091681;22;20663;-81
2023/04/04 03:06:01;;;;;;;1.73;1.00;;;;;;;;;;5067263;28;20269;-81
2023/04/04 03:08:30;;;;;;;1.10;1.10;;;;;;;;;;5055136;28;20296;-81
2023/04/04 03:10:58;;;;;;;2.05;1.65;;;;;;;;;;5054587;28;20202;-81
2023/04/04 03:13:25;;;;;;;0.80;0.80;;;;;;;;;;5054930;28;20301;-80
2023/04/04 03:16:01;;;;;;;2.13;1.33;;;;;;;;;;5054346;28;20312;-80
2023/04/04 03:18:29;;;;;;;1.45;1.35;;;;;;;;;;5054587;28;20646;-79
2023/04/04 03:20:56;;;;;;;1.23;1.10;;;;;;;;;;5054413;28;20622;-81
2023/04/04 03:23:24;;;;;;;3.97;1.40;;;;;;;;;;5053993;28;20308;-81
2023/04/04 03:25:53;;;;;;;0.93;0.93;;;;;;;;;;5054166;28;20685;-80
2023/04/04 03:28:21;;;;;;;0.95;0.95;;;;;;;;;;5053955;28;20205;-80
2023/04/04 03:30:48;;;;;;;1.70;1.27;;;;;;;;;;5053719;28;20220;-79
2023/04/04 03:33:16;;;;;;;2.75;1.60;;;;;;;;;;5060597;28;20225;-81
2023/04/04 03:35:43;;;;;;;1.65;1.15;;;;;;;;;;5073885;28;20212;-81
2023/04/04 03:38:12;;;;;;;1.20;1.10;;;;;;;;;;5073981;28;20315;-80
2023/04/04 03:40:40;;;;;;;1.27;1.17;;;;;;;;;;5073380;28;20699;-80
2023/04/04 03:43:09;;;;;;;1.15;1.10;;;;;;;;;;5073531;28;20248;-81
2023/04/04 03:45:38;;;;;;;0.93;0.90;;;;;;;;;;5074238;28;20641;-81
2023/04/04 03:48:06;;;;;;;0.93;0.93;;;;;;;;;;5074074;28;20207;-80
2023/04/04 03:50:33;;;;;;;1.15;1.05;;;;;;;;;;5073681;28;20209;-80
2023/04/04 03:53:01;;;;;;;1.13;1.02;;;;;;;;;;5073312;28;20227;-80
2023/04/04 03:55:28;;;;;;;1.00;1.00;;;;;;;;;;5073846;28;20288;-81
2023/04/04 03:57:55;;;;;;;2.15;1.35;;;;;;;;;;5073272;28;20220;-81
2023/04/04 04:00:25;;;;;;;1.38;1.10;;;;;;;;;;5072538;28;20205;-81
2023/04/04 04:02:53;;;;;;;1.00;1.00;;;;;;;;;;5070285;28;20236;-81
2023/04/04 04:05:20;;;;;;;1.70;1.20;;;;;;;;;;5053887;28;20212;-80
2023/04/04 04:07:48;;;;;;;1.23;1.23;;;;;;;;;;5053292;28;20284;-80
2023/04/04 04:10:15;;;;;;;1.58;1.00;;;;;;;;;;5053197;28;20201;-81
2023/04/04 04:12:43;;;;;;;5.47;1.88;;;;;;;;;;5053881;28;20228;-81
2023/04/04 04:15:11;;;;;;;2.60;1.30;;;;;;;;;;5054323;28;20206;-81
2023/04/04 04:17:41;;;;;;;1.80;1.45;;;;;;;;;;5053297;28;20217;-80
2023/04/04 04:20:10;;;;;;;0.90;0.90;;;;;;;;;;5053479;28;20193;-80
2023/04/04 04:22:38;;;;;;;2.13;1.92;;;;;;;;;;5053095;28;20228;-79
2023/04/04 04:25:06;;;;;;;1.40;1.30;;;;;;;;;;5053729;28;20765;-81
2023/04/04 04:27:33;;;;;;;1.08;1.08;;;;;;;;;;5053695;28;20210;-80
2023/04/04 04:30:01;;;;;;;1.60;1.50;;;;;;;;;;5052973;28;20201;-80
2023/04/04 04:32:28;;;;;;;1.80;1.10;;;;;;;;;;5052936;28;20308;-79
2023/04/04 04:34:57;;;;;;;1.52;1.42;;;;;;;;;;5073510;28;20295;-80
2023/04/04 04:37:25;;;;;;;3.65;1.08;;;;;;;;;;5072481;28;20221;-79
2023/04/04 04:39:53;;;;;;;2.05;1.25;;;;;;;;;;5073065;28;20299;-80
2023/04/04 04:42:21;;;;;;;1.23;1.13;;;;;;;;;;5072927;28;20304;-79
2023/04/04 04:44:48;;;;;;;1.05;1.05;;;;;;;;;;5073070;28;20255;-79
2023/04/04 04:47:16;;;;;;;0.98;0.98;;;;;;;;;;5073359;28;20201;-80
2023/04/04 04:49:46;;;;;;;1.58;1.23;;;;;;;;;;5073181;28;20687;-80
2023/04/04 04:52:15;;;;;;;1.02;1.00;;;;;;;;;;5073272;28;20227;-81
2023/04/04 04:54:43;;;;;;;1.30;1.05;;;;;;;;;;5075309;28;20201;-80
2023/04/04 04:57:11;;;;;;;1.25;1.02;;;;;;;;;;5076792;28;20232;-80
2023/04/04 04:59:40;;;;;;;1.08;1.00;;;;;;;;;;5080280;28;20291;-81
2023/04/04 05:02:07;;;;;;;1.67;1.08;;;;;;;;;;5076736;28;20328;-80
2023/04/04 05:04:35;;;;;;;3.08;1.23;;;;;;;;;;5059225;28;20296;-80
2023/04/04 05:07:02;;;;;;;5.90;1.77;;;;;;;;;;5056529;28;20198;-80
2023/04/04 05:09:31;;;;;;;0.98;0.98;;;;;;;;;;5056716;28;20294;-80
2023/04/04 05:11:59;;;;;;;2.40;1.52;;;;;;;;;;5055595;28;20226;-79
2023/04/04 05:14:26;;;;;;;1.30;1.20;;;;;;;;;;5055016;28;20288;-79
2023/04/04 05:16:54;;;;;;;2.50;1.25;;;;;;;;;;5054663;28;20197;-79
2023/04/04 05:19:21;;;;;;;1.00;1.00;;;;;;;;;;5055003;28;20202;-79
2023/04/04 05:21:49;;;;;;;1.00;1.00;;;;;;;;;;5055002;28;20841;-79
2023/04/04 05:24:17;;;;;;;1.13;1.02;;;;;;;;;;5054638;28;20201;-79
2023/04/04 05:26:45;;;;;;;2.25;1.00;;;;;;;;;;5055428;28;20213;-79
2023/04/04 05:29:13;;;;;;;1.48;1.08;;;;;;;;;;5054878;28;20247;-79
2023/04/04 05:31:40;;;;;;;2.35;1.85;;;;;;;;;;5054191;28;20204;-79
2023/04/04 05:34:08;;;;;;;1.17;0.90;;;;;;;;;;5072911;28;20201;-78
2023/04/04 05:36:35;;;;;;;1.98;1.50;;;;;;;;;;5062734;28;20194;-78
2023/04/04 05:39:04;;;;;;;1.48;1.10;;;;;;;;;;5054235;28;20230;-79
2023/04/04 05:41:31;;;;;;;1.15;1.05;;;;;;;;;;5054760;28;20201;-78
2023/04/04 05:44:00;;;;;;;1.98;1.10;;;;;;;;;;5054892;28;20292;-79
2023/04/04 05:46:28;;;;;;;1.05;1.02;;;;;;;;;;5066879;28;20205;-79
2023/04/04 05:48:55;;;;;;;1.88;1.00;;;;;;;;;;5074529;28;20194;-79
2023/04/04 05:51:23;;;;;;;1.05;1.00;;;;;;;;;;5056002;28;20665;-79
2023/04/04 05:53:51;;;;;;;2.58;1.63;;;;;;;;;;5053672;28;20225;-78
2023/04/04 05:56:18;;;;;;;4.00;1.40;;;;;;;;;;5054332;28;20260;-78
2023/04/04 05:58:46;;;;;;;1.50;1.20;;;;;;;;;;5053399;28;20583;-79
2023/04/04 06:01:14;;;;;;;0.85;0.85;;;;;;;;;;5053947;28;20616;-79
2023/04/04 06:03:42;;;;;;;1.05;1.02;;;;;;;;;;5069142;28;20233;-79
2023/04/04 06:06:10;;;;;;;2.03;1.35;;;;;;;;;;5073617;28;20205;-79
2023/04/04 06:08:37;;;;;;;2.47;1.38;;;;;;;;;;5073328;28;20201;-78
2023/04/04 06:11:05;;;;;;;2.30;1.20;;;;;;;;;;5074225;28;20201;-79
2023/04/04 06:13:32;;;;;;;1.88;1.13;;;;;;;;;;5074070;28;20225;-79
2023/04/04 06:16:00;;;;;;;2.05;1.13;;;;;;;;;;5073682;28;20292;-79
2023/04/04 06:18:29;;;;;;;1.00;1.00;;;;;;;;;;5073579;28;20224;-80
2023/04/04 06:20:56;;;;;;;2.30;1.17;;;;;;;;;;5073761;28;20228;-79
2023/04/04 06:23:24;;;;;;;1.63;1.20;;;;;;;;;;5074183;28;20233;-79
2023/04/04 06:25:52;;;;;;;0.95;0.90;;;;;;;;;;5073571;28;20204;-79
2023/04/04 06:28:19;;;;;;;0.90;0.90;;;;;;;;;;5073613;28;20203;-79
2023/04/04 06:30:47;;;;;;;1.35;1.20;;;;;;;;;;5074060;28;20197;-80
2023/04/04 06:33:14;;;;;;;1.42;1.25;;;;;;;;;;5073900;28;20232;-80
2023/04/04 06:35:44;;;;;;;1.30;1.20;;;;;;;;;;5073901;28;20215;-80
2023/04/04 06:38:11;;;;;;;1.15;1.05;;;;;;;;;;5073966;28;20778;-80
2023/04/04 06:40:38;;;;;;;1.20;1.08;;;;;;;;;;5073857;28;20203;-79
2023/04/04 06:43:06;;;;;;;2.42;1.27;;;;;;;;;;5073503;28;20722;-80
2023/04/04 06:45:34;;;;;;;1.33;1.00;;;;;;;;;;5073572;28;20211;-80
2023/04/04 06:48:03;;;;;;;1.23;1.13;;;;;;;;;;5073493;28;20238;-80
2023/04/04 06:50:32;;;;;;;1.73;1.63;;;;;;;;;;5073654;28;20585;-80
2023/04/04 06:53:01;;;;;;;3.53;1.80;;;;;;;;;;5073375;28;20225;-80
2023/04/04 06:55:28;;;;;;;1.58;1.33;;;;;;;;;;5073485;28;20569;-80
2023/04/04 06:57:56;;;;;;;1.50;1.40;;;;;;;;;;5073625;28;20687;-81
2023/04/04 07:00:23;;;;;;;1.30;1.20;;;;;;;;;;5061752;28;20205;-80
2023/04/04 07:02:56;;;;;;;0.90;0.90;;;;;;;;;;5061519;28;20233;-80
2023/04/04 07:05:24;;;;;;;1.98;1.33;;;;;;;;;;5073528;28;20205;-80
2023/04/04 07:07:53;;;;;;;3.53;1.75;;;;;;;;;;5073488;28;20196;-81
2023/04/04 07:10:22;;;;;;;3.65;1.35;;;;;;;;;;5072096;28;20632;-80
2023/04/04 07:12:49;;;;;;;2.20;2.00;;;;;;;;;;5074210;28;20221;-81
2023/04/04 07:15:17;;;;;;;2.38;1.20;;;;;;;;;;5075743;28;20268;-83
2023/04/04 07:17:44;;;;;;;1.55;1.20;;;;;;;;;;5079128;28;20291;-83
2023/04/04 07:20:12;;;;;;;1.63;1.52;;;;;;;;;;5075560;28;20228;-82
2023/04/04 07:22:41;;;;;;;1.17;1.10;;;;;;;;;;5057557;28;20289;-83
2023/04/04 07:25:10;;;;;;;2.42;1.80;;;;;;;;;;5071062;28;20205;-83
2023/04/04 07:27:40;;;;;;;1.65;1.30;;;;;;;;;;5067153;28;20213;-82
2023/04/04 07:30:09;;;;;;;2.92;1.40;;;;;;;;;;5056028;28;20201;-81
2023/04/04 07:32:37;;;;;;;1.75;1.50;;;;;;;;;;5060202;28;20236;-79
2023/04/04 07:35:05;;;;;;;2.53;1.70;;;;;;;;;;5075616;28;20628;-80
2023/04/04 07:37:33;;;;;;;1.48;1.38;;;;;;;;;;5071488;28;20205;-80
2023/04/04 07:40:01;;;;;;;2.22;1.85;;;;;;;;;;5074621;28;20243;-80
2023/04/04 07:42:29;;;;;;;3.25;1.67;;;;;;;;;;5072720;28;20271;-80
2023/04/04 07:44:58;;;;;;;1.58;1.42;;;;;;;;;;5072472;28;20591;-80
2023/04/04 07:47:27;;;;;;;1.45;1.25;;;;;;;;;;5071898;28;20284;-81
2023/04/04 07:49:54;;;;;;;1.65;1.20;;;;;;;;;;5071866;28;20206;-80
2023/04/04 07:52:22;;;;;;;1.40;1.30;;;;;;;;;;5072457;28;20232;-81
2023/04/04 07:54:50;;;;;;;3.03;2.00;;;;;;;;;;5073019;28;20664;-80
2023/04/04 07:57:18;;;;;;;1.88;1.73;;;;;;;;;;5072929;28;20292;-80
2023/04/04 07:59:46;;;;;;;2.40;1.80;;;;;;;;;;5072156;28;20603;-80
2023/04/04 08:02:14;;;;;;;2.50;1.60;;;;;;;;;;5072786;28;20236;-80
2023/04/04 08:04:42;;;;;;;2.97;1.63;;;;;;;;;;5071659;28;20715;-81
2023/04/04 08:07:09;;;;;;;1.48;1.38;;;;;;;;;;5072263;28;20205;-80
2023/04/04 08:09:37;;;;;;;1.70;1.60;;;;;;;;;;5072521;28;20215;-81
2023/04/04 08:12:05;;;;;;;1.30;1.20;;;;;;;;;;5073019;28;20221;-80
2023/04/04 08:14:33;;;;;;;1.15;1.10;;;;;;;;;;5073135;28;20204;-80
2023/04/04 08:17:01;;;;;;;1.60;1.38;;;;;;;;;;5073279;28;20196;-81
2023/04/04 08:19:29;;;;;;;1.25;1.15;;;;;;;;;;5073014;28;20229;-80
2023/04/04 08:21:57;;;;;;;1.65;1.42;;;;;;;;;;5072445;28;20231;-80
2023/04/04 08:24:24;;;;;;;1.80;1.65;;;;;;;;;;5073216;28;20719;-81
2023/04/04 08:26:52;;;;;;;2.05;1.50;;;;;;;;;;5073293;28;20197;-81
2023/04/04 08:29:19;;;;;;;2.70;1.90;;;;;;;;;;5075815;28;20632;-81
2023/04/04 08:31:47;;;;;;;1.48;1.33;;;;;;;;;;5076905;28;20315;-81
2023/04/04 08:34:14;;;;;;;2.78;1.30;;;;;;;;;;5071459;28;20232;-81
2023/04/04 08:36:43;;;;;;;2.45;1.95;;;;;;;;;;5076849;28;20200;-81
2023/04/04 08:39:11;;;;;;;1.75;1.60;;;;;;;;;;5076541;28;20242;-82
2023/04/04 08:41:40;;;;;;;1.77;1.50;;;;;;;;;;5076682;28;20266;-82
2023/04/04 08:44:09;;;;;;;1.50;1.40;;;;;;;;;;5075773;28;20205;-82
2023/04/04 08:46:37;;;;;;;1.58;1.38;;;;;;;;;;5076596;28;20205;-82
2023/04/04 08:49:05;;;;;;;3.67;1.75;;;;;;;;;;5076710;28;20243;-82
2023/04/04 08:51:34;;;;;;;1.75;1.65;;;;;;;;;;5076800;28;20217;-82
2023/04/04 08:54:03;;;;;;;1.52;1.38;;;;;;;;;;5076205;28;20287;-82
2023/04/04 08:56:31;;;;;;;1.75;1.42;;;;;;;;;;5076578;28;20209;-82
2023/04/04 08:58:58;;;;;;;1.60;1.50;;;;;;;;;;5076372;28;20201;-82
2023/04/04 09:01:28;;;;;;;1.50;1.40;;;;;;;;;;5076697;28;20201;-82
2023/04/04 09:03:57;;;;;;;1.55;1.30;;;;;;;;;;5123029;22;20695;-86
2023/04/04 09:06:26;;;;;;;3.17;1.60;;;;;;;;;;5096161;28;20204;-85
2023/04/04 09:08:56;;;;;;;3.58;1.65;;;;;;;;;;5095825;28;20201;-86
2023/04/04 09:11:26;;;;;;;1.92;1.83;;;;;;;;;;5096534;28;20207;-86
2023/04/04 09:13:56;;;;;;;2.10;1.30;;;;;;;;;;5095677;28;20306;-86
2023/04/04 09:16:28;;;;;;;2.33;1.60;;;;;;;;;;5095463;28;20189;-87
2023/04/04 09:19:05;;;;;;;2.60;2.03;;;;;;;;;;5095547;28;20184;-85
2023/04/04 09:21:36;;;;;;;1.88;1.77;;;;;;;;;;5095484;28;20216;-86
2023/04/04 09:24:08;;;;;;;1.30;1.20;;;;;;;;;;5095747;28;20228;-85
2023/04/04 09:26:52;;;;;;;1.50;1.40;;;;;;;;;;5096245;28;20645;-86
2023/04/04 09:29:23;;;;;;;2.55;1.38;;;;;;;;;;5095826;28;20204;-86
2023/04/04 09:31:54;;;;;;;1.60;1.50;;;;;;;;;;5097046;28;20208;-86
2023/04/04 09:34:25;;;;;;;1.90;1.40;;;;;;;;;;5116400;28;20192;-85
2023/04/04 09:36:54;;;;;;;1.80;1.70;;;;;;;;;;5116424;28;20687;-86
2023/04/04 09:39:27;;;;;;;1.58;1.48;;;;;;;;;;5115604;28;20203;-85
2023/04/04 09:42:03;;;;;;;1.98;1.75;;;;;;;;;;5115131;28;20221;-86
2023/04/04 09:44:35;;;;;;;1.88;1.58;;;;;;;;;;5115693;28;20203;-86
2023/04/04 09:47:26;;;;;;;1.10;1.10;;;;;;;;;;5116105;28;20204;-85
2023/04/04 09:49:55;;;;;;;2.63;1.60;;;;;;;;;;5116815;28;20204;-87
2023/04/04 09:52:27;;;;;;;2.17;1.48;;;;;;;;;;5116626;28;20216;-85
2023/04/04 09:54:58;;;;;;;1.60;1.50;;;;;;;;;;5120218;28;20624;-85
2023/04/04 09:57:29;;;;;;;1.70;1.55;;;;;;;;;;5116659;28;20652;-85
2023/04/04 10:00:03;;;;;;;1.60;1.50;;;;;;;;;;5117579;28;20770;-85
2023/04/04 10:02:31;;;;;;;2.60;2.40;;;;;;;;;;5119107;28;20694;-85
2023/04/04 10:04:59;;;;;;;1.95;1.60;;;;;;;;;;5117014;28;20203;-86
2023/04/04 10:07:32;;;;;;;2.72;1.73;;;;;;;;;;5116376;28;20195;-85
2023/04/04 10:10:02;;;;;;;1.50;1.40;;;;;;;;;;5115633;28;20283;-85
2023/04/04 10:12:31;;;;;;;2.70;1.70;;;;;;;;;;5119726;28;20215;-86
2023/04/04 10:15:00;;;;;;;2.50;1.67;;;;;;;;;;5121825;28;20674;-85
2023/04/04 10:17:31;;;;;;;1.30;1.20;;;;;;;;;;5119178;28;20202;-85
2023/04/04 10:20:02;;;;;;;1.48;1.10;;;;;;;;;;5118584;28;20216;-85
2023/04/04 10:22:30;;;;;;;1.40;1.30;;;;;;;;;;5116905;28;20216;-85
2023/04/04 10:24:58;;;;;;;1.40;1.20;;;;;;;;;;5118055;28;20577;-84
2023/04/04 10:27:26;;;;;;;1.63;1.40;;;;;;;;;;5117131;28;20282;-85
2023/04/04 10:30:15;;;;;;;1.73;1.50;;;;;;;;;;5116960;28;20231;-85
2023/04/04 10:33:05;;;;;;;1.45;1.35;;;;;;;;;;5118058;28;20601;-85
2023/04/04 10:35:33;;;;;;;2.75;1.70;;;;;;;;;;5108196;28;20650;-86
2023/04/04 10:38:04;;;;;;;1.42;1.33;;;;;;;;;;5118104;28;20234;-85
2023/04/04 10:40:34;;;;;;;2.60;1.58;;;;;;;;;;5116769;28;20219;-85
2023/04/04 10:43:05;;;;;;;2.08;1.70;;;;;;;;;;5117412;28;20220;-83
2023/04/04 10:45:37;;;;;;;2.72;1.70;;;;;;;;;;5117816;28;20204;-84
2023/04/04 10:48:05;;;;;;;1.42;1.33;;;;;;;;;;5117139;28;20591;-84
2023/04/04 10:50:34;;;;;;;1.40;1.30;;;;;;;;;;5117584;28;20287;-81
2023/04/04 10:53:03;;;;;;;3.58;1.63;;;;;;;;;;5117301;28;20326;-84
2023/04/04 10:55:34;;;;;;;2.47;1.95;;;;;;;;;;5117311;28;20583;-84
2023/04/04 10:58:02;;;;;;;3.60;1.50;;;;;;;;;;5117066;28;20688;-85
2023/04/04 11:00:30;;;;;;;2.53;1.40;;;;;;;;;;5116428;28;20223;-84
2023/04/04 11:03:03;;;;;;;1.25;1.25;;;;;;;;;;5116903;28;20702;-84
2023/04/04 11:05:39;;;;;;;2.35;1.77;;;;;;;;;;5115941;28;20199;-83
2023/04/04 11:08:08;;;;;;;1.55;1.45;;;;;;;;;;5116202;28;20195;-87
2023/04/04 11:10:37;;;;;;;1.50;1.40;;;;;;;;;;5115776;28;20208;-85
2023/04/04 11:13:11;;;;;;;2.30;1.90;;;;;;;;;;5114695;28;20710;-83
2023/04/04 11:15:55;;;;;;;1.38;1.10;;;;;;;;;;5114527;28;20245;-84
2023/04/04 11:18:47;;;;;;;1.70;1.40;;;;;;;;;;5116635;28;20788;-84
2023/04/04 11:21:17;;;;;;;1.20;1.10;;;;;;;;;;5134510;28;20195;-83
2023/04/04 11:24:20;;;;;;;1.58;1.10;;;;;;;;;;5139744;28;20244;-83
2023/04/04 11:26:49;;;;;;;0.80;0.80;;;;;;;;;;5139332;28;20216;-83
2023/04/04 11:29:53;;;;;;;2.30;1.40;;;;;;;;;;5139233;28;20186;-83
2023/04/04 11:32:42;;;;;;;1.42;1.10;;;;;;;;;;5139501;28;20203;-82
2023/04/04 11:35:14;;;;;;;1.02;1.02;;;;;;;;;;5136098;28;20199;-83
2023/04/04 11:37:45;;;;;;;1.73;1.55;;;;;;;;;;5119370;28;20207;-83
2023/04/04 11:40:14;;;;;;;1.55;1.23;;;;;;;;;;5118310;28;20206;-83
2023/04/04 11:42:42;;;;;;;1.67;1.33;;;;;;;;;;5117446;28;20612;-87
2023/04/04 11:45:10;;;;;;;1.38;1.27;;;;;;;;;;5116028;28;20200;-85
2023/04/04 11:47:41;;;;;;;1.95;1.50;;;;;;;;;;5116151;28;20195;-83
2023/04/04 11:50:12;;;;;;;1.65;1.50;;;;;;;;;;5114764;28;20213;-83
2023/04/04 11:52:41;;;;;;;2.55;1.88;;;;;;;;;;5115523;28;20212;-84
2023/04/04 11:55:16;;;;;;;1.80;1.70;;;;;;;;;;5114719;28;20663;-85
2023/04/04 11:57:43;;;;;;;2.00;1.50;;;;;;;;;;5114455;28;20205;-84
2023/04/04 12:00:14;;;;;;;1.77;1.67;;;;;;;;;;5114078;28;20239;-85
2023/04/04 12:02:42;;;;;;;2.30;1.67;;;;;;;;;;5114852;28;20303;-85
2023/04/04 12:05:13;;;;;;;1.50;1.23;;;;;;;;;;5121963;28;20256;-85
2023/04/04 12:07:43;;;;;;;1.17;1.08;;;;;;;;;;5122261;27;20541;-84
2023/04/04 12:10:11;;;;;;;1.42;1.30;;;;;;;;;;5123217;27;20234;-85
2023/04/04 12:12:40;;;;;;;1.98;1.80;;;;;;;;;;5122028;27;20318;-86
2023/04/04 12:15:09;;;;;;;1.40;1.30;;;;;;;;;;5122479;27;20225;-85
2023/04/04 12:17:42;;;;;;;1.60;1.20;;;;;;;;;;5122181;27;20223;-84
2023/04/04 12:20:13;;;;;;;1.30;1.20;;;;;;;;;;5121386;28;20187;-85
2023/04/04 12:22:41;;;;;;;2.00;1.65;;;;;;;;;;5121589;27;20219;-85
2023/04/04 12:25:10;;;;;;;1.65;1.25;;;;;;;;;;5122545;27;20200;-85
2023/04/04 12:27:38;;;;;;;2.58;2.38;;;;;;;;;;5122436;27;20221;-85
2023/04/04 12:30:14;;;;;;;2.10;1.58;;;;;;;;;;5121876;27;20211;-85
2023/04/04 12:32:42;;;;;;;0.98;0.98;;;;;;;;;;5122197;27;20226;-84
2023/04/04 12:35:21;;;;;;;1.73;1.25;;;;;;;;;;5121988;27;20200;-84
2023/04/04 12:38:02;;;;;;;1.23;1.10;;;;;;;;;;5121762;28;20578;-84
2023/04/04 12:40:36;;;;;;;1.70;1.60;;;;;;;;;;5121799;28;20283;-85
2023/04/04 12:43:08;;;;;;;2.53;1.45;;;;;;;;;;5121706;28;20249;-83
2023/04/04 12:45:41;;;;;;;2.20;1.17;;;;;;;;;;5120367;28;20200;-84
2023/04/04 12:48:14;;;;;;;1.70;1.38;;;;;;;;;;5120596;28;20569;-83
2023/04/04 12:50:54;;;;;;;1.58;1.48;;;;;;;;;;5120022;28;20278;-83
2023/04/04 12:53:26;;;;;;;2.67;1.38;;;;;;;;;;5120208;28;20764;-83
2023/04/04 12:55:58;;;;;;;2.30;2.10;;;;;;;;;;5120539;28;20259;-83
2023/04/04 12:58:27;;;;;;;1.17;1.10;;;;;;;;;;5120520;28;20225;-84
2023/04/04 13:00:58;;;;;;;1.15;1.02;;;;;;;;;;5120039;27;20252;-84
2023/04/04 13:03:26;;;;;;;1.50;1.40;;;;;;;;;;5119635;28;20695;-82
2023/04/04 13:05:55;;;;;;;1.50;1.40;;;;;;;;;;5120663;28;20282;-83
2023/04/04 13:08:22;;;;;;;1.48;1.38;;;;;;;;;;5117495;27;20221;-84
2023/04/04 13:11:03;;;;;;;2.67;1.70;;;;;;;;;;5104393;27;20228;-84
2023/04/04 13:13:35;;;;;;;1.55;1.45;;;;;;;;;;5101459;28;20644;-84
2023/04/04 13:16:05;;;;;;;1.85;1.70;;;;;;;;;;5097748;28;20607;-85
2023/04/04 13:18:38;;;;;;;2.95;1.73;;;;;;;;;;5099782;28;20219;-83
2023/04/04 13:21:07;;;;;;;2.30;1.50;;;;;;;;;;5101370;28;20674;-83
2023/04/04 13:23:38;;;;;;;1.55;1.20;;;;;;;;;;5097263;28;20228;-83
2023/04/04 13:26:06;;;;;;;2.58;2.03;;;;;;;;;;5098091;28;20208;-86
2023/04/04 13:28:35;;;;;;;2.00;1.70;;;;;;;;;;5097579;28;20188;-84
2023/04/04 13:31:03;;;;;;;1.48;1.38;;;;;;;;;;5097701;28;20223;-83
2023/04/04 13:33:31;;;;;;;1.48;1.40;;;;;;;;;;5110791;28;20220;-84
2023/04/04 13:35:59;;;;;;;1.70;1.60;;;;;;;;;;5117335;28;20290;-83
2023/04/04 13:38:28;;;;;;;1.40;1.30;;;;;;;;;;5117344;27;20203;-83
2023/04/04 13:40:57;;;;;;;1.50;1.40;;;;;;;;;;5117673;28;20221;-84
2023/04/04 13:43:24;;;;;;;2.17;1.60;;;;;;;;;;5117340;28;20219;-84
2023/04/04 13:45:54;;;;;;;1.95;1.85;;;;;;;;;;5117594;28;20234;-84
2023/04/04 13:48:21;;;;;;;2.33;1.92;;;;;;;;;;5117208;28;20200;-82
2023/04/04 13:50:50;;;;;;;1.63;1.40;;;;;;;;;;5116558;28;20210;-83
2023/04/04 13:53:17;;;;;;;2.33;1.90;;;;;;;;;;5116943;28;20273;-83
2023/04/04 13:55:46;;;;;;;1.65;1.40;;;;;;;;;;5117447;28;20209;-83
2023/04/04 13:58:18;;;;;;;1.60;1.50;;;;;;;;;;5117004;28;20638;-83
2023/04/04 14:00:47;;;;;;;2.55;2.03;;;;;;;;;;5117059;28;20195;-83
2023/04/04 14:03:15;;;;;;;1.77;1.67;;;;;;;;;;5111089;28;20230;-83
2023/04/04 14:05:42;;;;;;;1.42;1.33;;;;;;;;;;5116556;28;20675;-84
2023/04/04 14:08:10;;;;;;;1.55;1.45;;;;;;;;;;5116645;28;20693;-84
2023/04/04 14:10:38;;;;;;;1.90;1.30;;;;;;;;;;5116721;28;20732;-84
2023/04/04 14:13:06;;;;;;;2.33;1.90;;;;;;;;;;5116938;28;20806;-84
2023/04/04 14:15:34;;;;;;;1.80;1.70;;;;;;;;;;5116333;28;20742;-84
2023/04/04 14:18:01;;;;;;;1.73;1.63;;;;;;;;;;5116897;28;20263;-83
2023/04/04 14:20:29;;;;;;;1.92;1.83;;;;;;;;;;5116187;28;20302;-83
2023/04/04 14:22:56;;;;;;;1.30;1.20;;;;;;;;;;5115812;28;20227;-83
2023/04/04 14:25:24;;;;;;;1.55;1.45;;;;;;;;;;5117769;28;20203;-84
2023/04/04 14:27:51;;;;;;;1.48;1.38;;;;;;;;;;5118210;28;20199;-84
2023/04/04 14:30:20;;;;;;;1.40;1.30;;;;;;;;;;5139638;27;20254;-82
2023/04/04 14:32:49;;;;;;;1.70;1.48;;;;;;;;;;5140392;28;20314;-82
2023/04/04 14:35:17;;;;;;;2.20;2.00;;;;;;;;;;5140298;28;20215;-82
2023/04/04 14:37:45;;;;;;;1.52;1.42;;;;;;;;;;5140563;28;20168;-82
2023/04/04 14:40:13;;;;;;;1.80;1.58;;;;;;;;;;5139676;27;20213;-81
2023/04/04 14:42:40;;;;;;;3.45;1.60;;;;;;;;;;5135828;27;20263;-83
2023/04/04 14:45:11;;;;;;;2.83;1.50;;;;;;;;;;5121118;27;20234;-84
2023/04/04 14:47:40;;;;;;;2.60;1.60;;;;;;;;;;5117978;28;20203;-84
2023/04/04 14:50:09;;;;;;;1.65;1.40;;;;;;;;;;5116867;28;20207;-83
2023/04/04 14:52:36;;;;;;;1.88;1.77;;;;;;;;;;5115805;27;20216;-82
2023/04/04 14:55:05;;;;;;;1.80;1.65;;;;;;;;;;5116625;28;20302;-83